Time;durP1;ratioP1;P1;durP2;ratioP2;P2;SDS_P1;SDS_P2;PMS_P1;PMS_P2;Temp;Humidity;BMP_temperature;BMP_pressure;BME280_temperature;BME280_humidity;BME280_pressure;Samples;Min_cycle;Max_cycle;Signal;HPM_P1;HPM_P2
2022/05/15 00:02:04;;;;;;;10.20;9.30;;;;;;;15.60;71.41;93035.84;5028186;28;20318;-73
2022/05/15 00:04:30;;;;;;;10.53;9.93;;;;;;;15.45;71.44;93036.22;5029062;28;20179;-74
2022/05/15 00:06:55;;;;;;;9.90;9.30;;;;;;;15.27;72.29;93041.59;5028200;28;20252;-74
2022/05/15 00:09:21;;;;;;;9.17;8.77;;;;;;;15.26;71.72;93043.44;5026612;28;20218;-73
2022/05/15 00:11:47;;;;;;;10.60;9.93;;;;;;;15.29;70.84;93044.69;5028741;28;20286;-74
2022/05/15 00:14:13;;;;;;;9.00;8.50;;;;;;;15.07;72.75;93028.84;5028331;28;20175;-74
2022/05/15 00:16:39;;;;;;;9.80;9.20;;;;;;;15.22;74.29;93042.44;5027702;28;20238;-74
2022/05/15 00:19:04;;;;;;;10.73;10.00;;;;;;;15.16;75.36;93048.13;5028880;28;20199;-74
2022/05/15 00:21:30;;;;;;;10.10;9.40;;;;;;;15.01;75.35;93032.66;5028150;28;20219;-73
2022/05/15 00:23:55;;;;;;;10.20;9.57;;;;;;;14.84;76.41;93037.75;5028123;28;20187;-73
2022/05/15 00:26:21;;;;;;;9.53;9.00;;;;;;;14.89;77.16;93038.44;5028083;28;20229;-74
2022/05/15 00:28:46;;;;;;;10.07;9.50;;;;;;;14.62;76.93;93006.13;5027326;28;20191;-73
2022/05/15 00:31:12;;;;;;;10.90;10.20;;;;;;;14.69;73.30;93035.41;5028057;28;20234;-73
2022/05/15 00:33:38;;;;;;;9.83;9.27;;;;;;;14.78;71.80;93044.19;5028673;28;20195;-74
2022/05/15 00:36:04;;;;;;;10.43;9.73;;;;;;;14.88;70.93;93046.63;5027758;28;20253;-73
2022/05/15 00:38:29;;;;;;;10.87;10.07;;;;;;;15.23;67.61;93033.50;5027802;28;20218;-74
2022/05/15 00:40:56;;;;;;;9.83;9.33;;;;;;;15.25;67.83;93031.34;5027838;28;20245;-74
2022/05/15 00:43:51;;;;;;;10.87;10.07;;;;;;;15.13;69.17;93046.09;5027808;28;20254;-73
2022/05/15 00:46:23;;;;;;;10.30;9.70;;;;;;;15.11;70.37;93050.88;5025619;28;20870;-74
2022/05/15 00:48:51;;;;;;;10.33;9.73;;;;;;;15.01;71.29;93048.44;5010132;28;20187;-74
2022/05/15 00:51:34;;;;;;;10.10;9.43;;;;;;;14.96;70.01;93049.31;5027269;28;20239;-74
2022/05/15 00:54:28;;;;;;;10.07;9.40;;;;;;;15.05;69.61;93044.91;5026688;28;20198;-73
2022/05/15 00:57:14;;;;;;;11.20;10.50;;;;;;;15.05;68.14;93029.13;5042152;28;20231;-74
2022/05/15 00:59:53;;;;;;;10.80;10.20;;;;;;;15.08;69.62;93051.47;5026950;28;20186;-73
2022/05/15 01:02:20;;;;;;;11.17;10.40;;;;;;;15.04;68.60;93045.22;5028064;28;20242;-73
2022/05/15 01:04:47;;;;;;;10.17;9.67;;;;;;;15.06;69.50;93043.06;5027534;28;20230;-74
2022/05/15 01:07:13;;;;;;;10.83;10.03;;;;;;;15.04;70.72;93045.22;5027592;28;21025;-74
2022/05/15 01:09:38;;;;;;;9.97;9.27;;;;;;;14.95;73.39;93044.34;5028212;28;20256;-74
2022/05/15 01:12:04;;;;;;;9.83;9.33;;;;;;;14.94;73.00;93037.56;5027895;28;20214;-73
2022/05/15 01:14:32;;;;;;;10.03;9.20;;;;;;;14.88;73.62;93041.34;5027354;28;20187;-73
2022/05/15 01:16:58;;;;;;;10.73;10.10;;;;;;;14.73;74.28;93044.28;5027355;28;20229;-74
2022/05/15 01:19:32;;;;;;;9.70;9.20;;;;;;;14.60;75.37;93037.94;5024662;28;20249;-73
2022/05/15 01:21:59;;;;;;;11.70;10.90;;;;;;;14.66;75.53;93034.16;5023402;28;20249;-73
2022/05/15 01:24:25;;;;;;;10.10;9.50;;;;;;;14.44;75.91;93026.94;5027986;28;20197;-73
2022/05/15 01:26:51;;;;;;;9.90;9.40;;;;;;;14.45;73.15;93044.28;5026652;28;20337;-72
2022/05/15 01:29:17;;;;;;;9.97;9.47;;;;;;;14.47;73.91;93017.72;5026195;28;20179;-74
2022/05/15 01:31:43;;;;;;;10.70;9.90;;;;;;;14.53;74.35;93040.19;5027225;28;20249;-74
2022/05/15 01:34:10;;;;;;;10.30;9.63;;;;;;;14.55;73.08;93037.28;5027256;28;20210;-74
2022/05/15 01:36:36;;;;;;;10.40;9.80;;;;;;;14.27;73.13;93000.47;5027678;28;20257;-73
2022/05/15 01:39:03;;;;;;;10.50;9.80;;;;;;;14.50;73.68;93040.78;5026625;28;20265;-74
2022/05/15 01:41:28;;;;;;;10.33;9.73;;;;;;;14.58;73.90;93028.81;5027844;28;20215;-74
2022/05/15 01:43:54;;;;;;;10.33;9.63;;;;;;;14.56;71.81;93041.44;5027452;28;20213;-73
2022/05/15 01:46:25;;;;;;;10.23;9.63;;;;;;;14.55;69.57;93011.00;5027388;28;20241;-73
2022/05/15 01:48:52;;;;;;;10.30;9.67;;;;;;;14.71;70.54;93039.31;5026974;28;20186;-73
2022/05/15 01:51:18;;;;;;;10.00;9.40;;;;;;;14.62;69.23;93033.19;5025997;28;20211;-72
2022/05/15 01:53:43;;;;;;;10.33;9.63;;;;;;;14.76;69.65;93046.31;5028311;28;20197;-73
2022/05/15 01:56:10;;;;;;;9.80;9.20;;;;;;;14.79;69.19;93043.88;5029635;28;20222;-73
2022/05/15 01:58:36;;;;;;;9.37;8.70;;;;;;;14.60;69.09;93008.28;5032601;28;20201;-73
2022/05/15 02:01:02;;;;;;;9.87;9.07;;;;;;;14.79;70.12;93036.00;5031639;28;20302;-73
2022/05/15 02:03:28;;;;;;;10.47;9.87;;;;;;;14.70;70.47;93036.97;5031747;28;20183;-73
2022/05/15 02:05:53;;;;;;;10.27;9.57;;;;;;;14.69;70.31;93027.53;5031019;28;20267;-73
2022/05/15 02:08:19;;;;;;;10.37;9.37;;;;;;;14.69;69.95;93030.97;5030462;28;20199;-73
2022/05/15 02:10:45;;;;;;;10.00;9.27;;;;;;;14.90;66.31;93036.56;5031005;28;20241;-73
2022/05/15 02:13:11;;;;;;;10.30;9.60;;;;;;;15.04;65.24;93039.97;5031717;28;20205;-73
2022/05/15 02:15:37;;;;;;;9.67;9.17;;;;;;;15.10;65.17;93039.56;5029355;28;20238;-74
2022/05/15 02:18:04;;;;;;;10.50;9.77;;;;;;;15.16;65.41;93042.88;5013715;28;20201;-73
2022/05/15 02:20:32;;;;;;;9.87;9.27;;;;;;;15.06;65.36;93029.94;5030670;28;20230;-73
2022/05/15 02:22:58;;;;;;;10.83;10.13;;;;;;;14.99;68.40;93045.34;5031630;28;20195;-74
2022/05/15 02:25:24;;;;;;;10.33;9.73;;;;;;;14.85;66.55;93020.91;5030534;28;20239;-73
2022/05/15 02:27:49;;;;;;;9.83;9.23;;;;;;;14.84;67.64;93038.53;5030986;28;20194;-73
2022/05/15 02:30:17;;;;;;;9.53;9.03;;;;;;;14.86;68.46;93043.50;5030016;28;20231;-73
2022/05/15 02:32:43;;;;;;;9.23;8.73;;;;;;;14.66;66.97;93007.88;5031375;28;20233;-73
2022/05/15 02:35:09;;;;;;;10.27;9.67;;;;;;;14.83;68.72;93044.09;5030376;28;20182;-73
2022/05/15 02:37:35;;;;;;;9.70;9.17;;;;;;;14.71;70.78;93041.94;5030941;28;20199;-73
2022/05/15 02:40:01;;;;;;;9.60;9.20;;;;;;;14.58;72.67;93041.94;5029566;28;20189;-74
2022/05/15 02:42:27;;;;;;;9.40;8.90;;;;;;;14.54;73.03;93052.25;5031068;28;20189;-74
2022/05/15 02:44:52;;;;;;;10.13;9.40;;;;;;;14.36;74.55;93040.78;5030033;28;20214;-73
2022/05/15 02:47:18;;;;;;;9.77;9.07;;;;;;;14.21;76.02;93054.13;5031368;28;20238;-73
2022/05/15 02:52:27;;;;;;;9.57;9.07;;;;;;;14.01;76.27;93056.31;5030321;28;20229;-73
2022/05/15 02:54:53;;;;;;;9.37;8.87;;;;;;;13.91;76.38;93046.78;5030420;28;20186;-74
2022/05/15 02:57:18;;;;;;;9.70;9.20;;;;;;;13.95;77.31;93054.84;5030573;28;20190;-73
2022/05/15 02:59:44;;;;;;;9.87;9.27;;;;;;;13.79;78.60;93062.19;5012824;28;20270;-74
2022/05/15 03:02:09;;;;;;;10.57;9.77;;;;;;;13.76;77.71;93068.00;5029501;28;20227;-73
2022/05/15 03:04:36;;;;;;;10.40;9.80;;;;;;;13.67;77.77;93061.06;5030471;28;20213;-73
2022/05/15 03:07:06;;;;;;;10.53;10.03;;;;;;;13.80;77.00;93065.59;5045408;28;20229;-73
2022/05/15 03:09:32;;;;;;;9.73;9.27;;;;;;;13.67;77.69;93064.47;5030477;28;20255;-74
2022/05/15 03:11:58;;;;;;;10.03;9.50;;;;;;;13.81;77.59;93065.31;5029788;28;20261;-73
2022/05/15 03:14:23;;;;;;;10.97;10.33;;;;;;;13.86;77.12;93052.09;5030145;28;20178;-73
2022/05/15 03:16:49;;;;;;;9.80;9.30;;;;;;;14.32;75.13;93066.03;5012727;28;20245;-73
2022/05/15 03:19:14;;;;;;;10.10;9.40;;;;;;;14.87;73.36;93066.06;5029766;28;20190;-73
2022/05/15 03:21:40;;;;;;;10.43;9.83;;;;;;;15.73;68.50;93071.88;5013009;28;20218;-74
2022/05/15 03:24:08;;;;;;;9.67;9.27;;;;;;;16.32;64.10;93076.00;5029851;28;21206;-74
2022/05/15 03:26:39;;;;;;;9.97;9.43;;;;;;;17.15;63.70;93077.78;5029363;28;20238;-74
2022/05/15 03:29:05;;;;;;;10.00;9.30;;;;;;;17.35;62.82;93072.66;5029146;28;20213;-74
2022/05/15 03:31:31;;;;;;;9.23;8.27;;;;;;;16.86;65.28;93085.41;5029986;28;20348;-74
2022/05/15 03:33:56;;;;;;;10.80;10.10;;;;;;;16.64;66.16;93078.34;5029544;28;20187;-73
2022/05/15 03:36:22;;;;;;;9.47;8.97;;;;;;;16.44;67.23;93086.78;5029884;28;20231;-73
2022/05/15 03:38:48;;;;;;;10.07;9.47;;;;;;;16.02;67.95;93056.44;5029638;28;20234;-73
2022/05/15 03:41:14;;;;;;;9.70;9.10;;;;;;;15.93;68.75;93068.78;5029933;28;20222;-73
2022/05/15 03:43:39;;;;;;;10.60;10.00;;;;;;;16.04;69.10;93087.75;5029756;28;20263;-74
2022/05/15 03:46:07;;;;;;;10.37;9.67;;;;;;;16.02;69.45;93089.91;5029022;28;20269;-73
2022/05/15 03:48:33;;;;;;;8.97;8.57;;;;;;;16.23;68.68;93082.28;5030043;28;20246;-74
2022/05/15 03:50:59;;;;;;;8.57;8.07;;;;;;;16.05;68.06;93087.44;5043999;28;20253;-74
2022/05/15 03:53:26;;;;;;;9.37;8.57;;;;;;;15.94;70.04;93085.34;5029653;28;20202;-73
2022/05/15 03:55:55;;;;;;;9.97;9.37;;;;;;;15.92;69.68;93074.34;5029001;28;20231;-74
2022/05/15 03:58:22;;;;;;;10.33;9.47;;;;;;;15.91;71.11;93075.41;5029624;28;20190;-73
2022/05/15 04:00:48;;;;;;;9.70;9.20;;;;;;;16.38;69.88;93074.78;5027580;28;20238;-73
2022/05/15 04:03:13;;;;;;;9.60;9.07;;;;;;;16.36;69.77;93065.63;5029555;28;20226;-74
2022/05/15 04:05:39;;;;;;;9.57;8.97;;;;;;;16.24;70.59;93068.03;5029553;28;20275;-73
2022/05/15 04:08:06;;;;;;;9.47;8.97;;;;;;;16.27;70.01;93077.97;5028054;28;20286;-73
2022/05/15 04:10:31;;;;;;;8.80;8.23;;;;;;;16.27;69.86;93084.03;5029680;28;20229;-73
2022/05/15 04:12:57;;;;;;;10.40;9.80;;;;;;;16.31;69.91;93090.22;5029707;28;20190;-73
2022/05/15 04:15:22;;;;;;;9.73;9.03;;;;;;;16.62;66.46;93090.28;5028595;28;20219;-73
2022/05/15 04:17:50;;;;;;;9.50;9.00;;;;;;;16.68;64.98;93089.88;5029448;28;20207;-73
2022/05/15 04:20:18;;;;;;;9.53;8.90;;;;;;;16.72;65.00;93100.56;5027588;28;20249;-73
2022/05/15 04:22:44;;;;;;;9.93;9.23;;;;;;;16.51;64.23;93089.00;5029727;28;20205;-74
2022/05/15 04:25:13;;;;;;;10.97;10.13;;;;;;;16.78;63.51;93102.00;5028245;28;20233;-74
2022/05/15 04:27:40;;;;;;;10.13;9.07;;;;;;;16.84;64.36;93098.91;5012359;28;20207;-74
2022/05/15 04:30:06;;;;;;;10.43;9.83;;;;;;;16.67;64.38;93090.94;5028547;28;20225;-73
2022/05/15 04:32:32;;;;;;;10.47;9.57;;;;;;;16.74;65.20;93104.47;5029265;28;20187;-73
2022/05/15 04:34:57;;;;;;;11.30;10.57;;;;;;;16.89;63.41;93103.25;5027889;28;20206;-74
2022/05/15 04:37:23;;;;;;;9.90;9.27;;;;;;;16.90;63.08;93097.69;5028697;28;20209;-74
2022/05/15 04:39:48;;;;;;;10.97;10.13;;;;;;;17.12;62.97;93104.78;5029316;28;20277;-73
2022/05/15 04:42:14;;;;;;;9.43;8.93;;;;;;;17.25;62.82;93109.91;5029353;28;20238;-73
2022/05/15 04:44:39;;;;;;;9.67;9.00;;;;;;;17.27;62.89;93106.97;5029331;28;20210;-75
2022/05/15 04:47:05;;;;;;;10.17;9.47;;;;;;;17.23;62.77;93106.81;5028607;28;20230;-84
2022/05/15 04:49:31;;;;;;;9.97;9.37;;;;;;;16.99;63.24;93106.44;5011993;28;20260;-79
2022/05/15 04:51:56;;;;;;;11.07;10.17;;;;;;;17.27;62.79;93101.69;5027711;28;20306;-74
2022/05/15 04:54:22;;;;;;;10.33;9.73;;;;;;;17.48;61.41;93095.56;5028662;28;20189;-80
2022/05/15 04:56:47;;;;;;;9.77;9.00;;;;;;;17.25;61.98;93094.09;5027301;28;20257;-77
2022/05/15 04:59:13;;;;;;;10.43;9.83;;;;;;;17.93;61.07;93082.84;5028573;28;20222;-77
2022/05/15 05:01:38;;;;;;;11.40;10.50;;;;;;;18.85;58.31;93104.16;5028561;28;20230;-77
2022/05/15 05:04:04;;;;;;;10.00;9.33;;;;;;;19.05;58.51;93116.69;5010221;28;20202;-78
2022/05/15 05:06:30;;;;;;;10.20;9.60;;;;;;;18.70;60.15;93117.91;5027523;28;20236;-80
2022/05/15 05:08:56;;;;;;;9.53;8.93;;;;;;;18.90;58.99;93117.22;5026554;28;20222;-79
2022/05/15 05:11:22;;;;;;;10.43;9.63;;;;;;;18.98;59.59;93118.28;5027178;28;20304;-82
2022/05/15 05:13:47;;;;;;;11.20;10.40;;;;;;;18.71;60.49;93119.47;5010423;28;20195;-75
2022/05/15 05:16:14;;;;;;;15.57;14.07;;;;;;;18.95;59.86;93116.28;5026133;28;20223;-75
2022/05/15 05:18:40;;;;;;;10.73;9.77;;;;;;;18.67;59.79;93107.19;5027715;28;20189;-74
2022/05/15 05:21:05;;;;;;;11.80;10.80;;;;;;;18.82;61.11;93125.19;5027574;28;20254;-77
2022/05/15 05:23:31;;;;;;;12.10;11.20;;;;;;;19.05;59.31;93111.41;5028534;28;20187;-75
2022/05/15 05:25:57;;;;;;;10.80;9.90;;;;;;;19.03;60.27;93115.47;5010593;28;20219;-74
2022/05/15 05:28:23;;;;;;;11.67;10.87;;;;;;;19.41;59.34;93121.53;5028406;28;20299;-75
2022/05/15 05:30:49;;;;;;;11.80;10.80;;;;;;;19.58;57.93;93124.09;5029538;28;20251;-76
2022/05/15 05:33:15;;;;;;;13.00;12.00;;;;;;;19.73;58.51;93122.75;5030640;28;20171;-80
2022/05/15 05:35:42;;;;;;;12.60;11.70;;;;;;;20.78;55.80;93131.13;5045504;28;20223;-76
2022/05/15 05:38:07;;;;;;;11.30;10.47;;;;;;;20.89;54.95;93126.94;5030285;28;20232;-78
2022/05/15 05:40:33;;;;;;;11.30;10.50;;;;;;;23.22;48.60;93120.91;5014027;28;20224;-77
2022/05/15 05:42:59;;;;;;;10.55;9.75;;;;;;;26.65;39.89;93117.81;5032199;28;20195;-75
2022/05/15 05:45:24;;;;;;;9.20;8.57;;;;;;;30.00;32.78;93147.38;5031291;28;20233;-77
2022/05/15 05:47:50;;;;;;;8.75;8.15;;;;;;;31.55;30.36;93145.72;5031784;28;20205;-74
2022/05/15 05:50:18;;;;;;;8.23;7.70;;;;;;;31.25;29.75;93132.03;5031812;28;20897;-77
2022/05/15 05:52:44;;;;;;;7.65;7.15;;;;;;;33.05;26.38;93132.00;5032021;28;20182;-79
2022/05/15 05:55:13;;;;;;;9.52;8.70;;;;;;;32.78;26.35;93138.50;5030682;28;20201;-77
2022/05/15 05:57:40;;;;;;;10.93;9.98;;;;;;;33.13;26.64;93128.03;5029424;28;20262;-78
2022/05/15 06:00:11;;;;;;;8.52;7.93;;;;;;;34.28;24.31;93134.81;5029982;28;20186;-78
2022/05/15 06:02:37;;;;;;;8.13;7.63;;;;;;;34.84;23.30;93140.00;5030392;28;20174;-78
2022/05/15 06:05:03;;;;;;;8.45;7.95;;;;;;;33.03;25.96;93139.00;5027920;28;21746;-78
2022/05/15 06:07:28;;;;;;;8.05;7.50;;;;;;;31.92;25.46;93134.31;5029968;28;20288;-78
2022/05/15 06:09:54;;;;;;;7.93;7.32;;;;;;;30.69;28.55;93130.34;5027779;28;20250;-78
2022/05/15 06:12:23;;;;;;;8.10;7.60;;;;;;;30.46;28.92;93129.28;5030774;28;20209;-78
2022/05/15 06:14:49;;;;;;;8.10;7.60;;;;;;;31.39;27.98;93136.59;5028850;28;20207;-78
2022/05/15 06:17:19;;;;;;;8.60;7.90;;;;;;;31.05;27.85;93123.66;5028799;28;20222;-77
2022/05/15 06:19:44;;;;;;;7.63;7.20;;;;;;;30.24;27.84;93130.47;5030064;28;20178;-78
2022/05/15 06:22:10;;;;;;;7.88;7.35;;;;;;;28.94;29.71;93125.69;5029439;28;20269;-78
2022/05/15 06:24:35;;;;;;;7.72;7.20;;;;;;;28.92;29.79;93121.84;5030908;28;20199;-78
2022/05/15 06:27:02;;;;;;;8.10;7.45;;;;;;;28.25;31.10;93129.59;5029569;28;20234;-78
2022/05/15 06:29:28;;;;;;;9.15;8.00;;;;;;;26.49;33.15;93114.50;5029633;28;20258;-78
2022/05/15 06:31:54;;;;;;;8.27;7.78;;;;;;;25.33;34.63;93122.75;5029316;28;20257;-77
2022/05/15 06:34:20;;;;;;;8.70;8.10;;;;;;;24.29;36.20;93098.25;5030311;28;20190;-78
2022/05/15 06:36:46;;;;;;;8.30;7.85;;;;;;;22.23;38.98;93115.97;5028101;28;20606;-79
2022/05/15 06:39:12;;;;;;;8.18;7.78;;;;;;;21.82;39.91;93090.47;5030023;28;20296;-76
2022/05/15 06:41:38;;;;;;;8.40;8.00;;;;;;;21.42;40.71;93092.25;5029400;28;20224;-79
2022/05/15 06:44:04;;;;;;;7.85;7.50;;;;;;;20.77;39.27;93129.56;5028549;28;20205;-77
2022/05/15 06:46:29;;;;;;;8.23;7.63;;;;;;;20.07;40.67;93086.19;5028265;28;20233;-78
2022/05/15 06:48:55;;;;;;;9.18;8.48;;;;;;;20.78;39.71;93105.34;5012980;28;20209;-77
2022/05/15 06:51:21;;;;;;;9.05;8.35;;;;;;;20.88;39.55;93133.34;5028769;28;20312;-79
2022/05/15 06:53:47;;;;;;;10.00;9.25;;;;;;;20.36;40.14;93130.41;5028613;28;20188;-78
2022/05/15 06:58:58;;;;;;;18.33;15.82;;;;;;;21.41;39.41;93127.91;5029412;28;20268;-76
2022/05/15 07:01:24;;;;;;;9.75;9.15;;;;;;;20.19;39.86;93110.13;5044299;28;20251;-77
2022/05/15 07:03:49;;;;;;;9.50;8.85;;;;;;;20.62;40.37;93105.19;5028010;28;20211;-76
2022/05/15 07:06:15;;;;;;;9.48;8.93;;;;;;;21.20;38.98;93125.34;5027052;28;20230;-75
2022/05/15 07:08:41;;;;;;;11.43;10.52;;;;;;;20.98;40.89;93131.06;5028523;28;20281;-77
2022/05/15 07:11:07;;;;;;;13.75;12.48;;;;;;;21.45;41.01;93128.78;5027890;28;20227;-76
2022/05/15 07:13:33;;;;;;;11.63;10.63;;;;;;;21.36;41.29;93130.78;5026973;28;20225;-76
2022/05/15 07:15:59;;;;;;;9.20;8.70;;;;;;;20.95;41.31;93123.72;5026593;28;20242;-76
2022/05/15 07:18:25;;;;;;;8.70;8.10;;;;;;;20.86;40.94;93085.13;5029923;28;20203;-76
2022/05/15 07:20:51;;;;;;;8.25;7.85;;;;;;;21.21;41.33;93118.94;5029726;28;20239;-76
2022/05/15 07:23:18;;;;;;;8.75;8.15;;;;;;;21.50;42.25;93099.34;5028012;28;20198;-76
2022/05/15 07:25:43;;;;;;;8.13;7.63;;;;;;;21.83;39.96;93116.72;5028347;28;20250;-77
2022/05/15 07:28:09;;;;;;;9.07;8.55;;;;;;;21.62;40.86;93096.69;5029350;28;20187;-76
2022/05/15 07:30:34;;;;;;;9.20;8.70;;;;;;;21.90;41.84;93121.47;5028452;28;20257;-77
2022/05/15 07:33:00;;;;;;;9.35;8.80;;;;;;;21.56;44.03;93098.00;5028915;28;20198;-76
2022/05/15 07:35:26;;;;;;;9.45;8.82;;;;;;;21.41;44.15;93119.94;5027405;28;20251;-77
2022/05/15 07:37:52;;;;;;;9.60;8.90;;;;;;;21.43;43.94;93118.50;5027648;28;20191;-76
2022/05/15 07:40:18;;;;;;;11.40;10.55;;;;;;;21.29;44.59;93117.28;5027964;28;20301;-77
2022/05/15 07:42:44;;;;;;;8.93;8.43;;;;;;;21.09;45.06;93110.19;5029131;28;20203;-76
2022/05/15 07:45:10;;;;;;;10.73;9.75;;;;;;;20.62;45.67;93091.16;5011342;28;20201;-77
2022/05/15 07:47:36;;;;;;;9.00;8.20;;;;;;;21.23;46.31;93103.44;5028798;28;20183;-77
2022/05/15 07:50:03;;;;;;;10.57;9.85;;;;;;;20.91;45.69;93120.19;5028976;28;20204;-76
2022/05/15 07:52:28;;;;;;;10.55;9.77;;;;;;;20.92;46.32;93110.34;5011245;28;20205;-77
2022/05/15 07:54:54;;;;;;;11.35;10.45;;;;;;;20.53;47.26;93125.72;5028429;28;20195;-77
2022/05/15 07:57:19;;;;;;;10.40;9.70;;;;;;;21.14;48.33;93129.34;5029282;28;20178;-75
2022/05/15 07:59:45;;;;;;;17.90;14.73;;;;;;;20.76;44.41;93120.84;5028774;28;20178;-75
2022/05/15 08:02:11;;;;;;;9.95;9.20;;;;;;;20.67;46.40;93126.22;5028310;28;20224;-76
2022/05/15 08:08:00;;;;;;;14.75;13.50;;;;;;;20.59;46.30;93116.47;5028007;28;20196;-75
2022/05/15 08:10:09;;;;;;;9.52;8.82;;;;;;;20.75;45.63;93129.13;5028046;28;20200;-78
2022/05/15 08:12:35;;;;;;;8.85;8.15;;;;;;;20.64;44.49;93121.56;5029169;28;20253;-76
2022/05/15 08:15:02;;;;;;;8.55;8.02;;;;;;;20.69;44.98;93137.28;5028030;28;20233;-78
2022/05/15 08:17:27;;;;;;;8.90;8.30;;;;;;;20.69;44.39;93139.94;5028944;28;20196;-77
2022/05/15 08:25:34;;;;;;;9.68;9.00;;;;;;;21.21;45.02;93134.88;5036926;28;20239;-75
2022/05/15 08:27:59;;;;;;;9.32;8.73;;;;;;;21.52;43.92;93139.66;5028600;28;20225;-78
2022/05/15 08:30:25;;;;;;;9.95;9.35;;;;;;;21.76;43.82;93142.34;5028091;28;20299;-78
2022/05/15 08:32:53;;;;;;;9.02;8.50;;;;;;;21.54;43.73;93148.06;5028974;28;20251;-78
2022/05/15 08:35:19;;;;;;;8.48;8.07;;;;;;;21.26;43.96;93142.63;5026867;28;20309;-78
2022/05/15 08:37:44;;;;;;;9.13;8.32;;;;;;;21.02;44.33;93125.88;5027708;28;20181;-78
2022/05/15 08:40:11;;;;;;;9.48;8.80;;;;;;;21.39;43.27;93159.34;5026830;28;20279;-77
2022/05/15 08:43:03;;;;;;;9.13;8.63;;;;;;;21.78;42.86;93154.19;5028018;28;20216;-77
2022/05/15 08:45:37;;;;;;;8.18;7.75;;;;;;;21.61;41.40;93145.63;5024072;28;20227;-79
2022/05/15 08:48:04;;;;;;;8.93;8.52;;;;;;;21.20;42.91;93143.94;5027384;28;20197;-78
2022/05/15 08:50:35;;;;;;;8.85;8.15;;;;;;;21.27;44.37;93122.94;5028176;28;20227;-78
2022/05/15 08:53:14;;;;;;;9.60;9.00;;;;;;;21.10;43.10;93152.34;5027656;28;21198;-77
2022/05/15 08:55:47;;;;;;;8.82;8.32;;;;;;;21.32;41.40;93157.25;5026790;28;20261;-77
2022/05/15 08:58:29;;;;;;;8.98;8.48;;;;;;;21.46;43.04;93152.38;5026569;28;20205;-77
2022/05/15 09:00:55;;;;;;;9.93;9.23;;;;;;;20.77;41.91;93156.09;5027106;28;20963;-78
2022/05/15 09:03:24;;;;;;;8.20;7.72;;;;;;;21.20;41.68;93153.81;5011472;28;20998;-77
2022/05/15 09:06:13;;;;;;;8.95;8.48;;;;;;;21.23;42.35;93147.84;5032433;28;20233;-74
2022/05/15 09:08:58;;;;;;;8.73;8.23;;;;;;;21.09;42.18;93148.13;5050256;28;20291;-76
2022/05/15 09:11:42;;;;;;;8.00;7.50;;;;;;;21.10;42.18;93149.69;5034646;28;20297;-74
2022/05/15 09:14:40;;;;;;;8.75;8.23;;;;;;;21.11;43.23;93150.44;5034735;28;20185;-76
2022/05/15 09:17:31;;;;;;;9.80;9.23;;;;;;;21.12;41.38;93152.78;4997534;28;20237;-76
2022/05/15 09:20:11;;;;;;;9.57;9.07;;;;;;;21.20;42.21;93143.19;5034475;28;20194;-74
2022/05/15 09:22:55;;;;;;;8.68;8.23;;;;;;;21.42;42.64;93127.56;5034823;28;20187;-73
2022/05/15 09:25:24;;;;;;;10.82;9.98;;;;;;;21.41;42.15;93115.41;5031941;28;20232;-73
2022/05/15 09:27:56;;;;;;;7.82;7.35;;;;;;;21.44;40.01;93132.56;5033886;28;20222;-73
2022/05/15 09:30:22;;;;;;;7.97;7.47;;;;;;;21.14;40.23;93112.59;5033560;28;20218;-73
2022/05/15 09:32:56;;;;;;;8.45;7.85;;;;;;;21.38;39.39;93145.31;5034929;28;20214;-74
2022/05/15 09:35:41;;;;;;;8.70;8.20;;;;;;;21.27;39.67;93138.88;5032493;28;20224;-74
2022/05/15 09:38:27;;;;;;;8.93;8.18;;;;;;;21.43;40.14;93137.09;5033742;28;20255;-75
2022/05/15 09:43:54;;;;;;;7.45;7.05;;;;;;;21.67;39.72;93131.78;5032941;28;20287;-76
2022/05/15 09:46:22;;;;;;;9.07;8.32;;;;;;;21.36;39.71;93130.78;5031626;28;20239;-76
2022/05/15 09:49:06;;;;;;;8.30;7.90;;;;;;;21.77;40.19;93128.72;5029571;28;20184;-76
2022/05/15 09:51:53;;;;;;;7.95;7.53;;;;;;;21.66;40.25;93118.81;5033682;28;20262;-77
2022/05/15 09:54:34;;;;;;;8.65;8.05;;;;;;;21.97;38.22;93124.34;5047047;28;20237;-75
2022/05/15 09:57:12;;;;;;;8.60;8.00;;;;;;;21.87;39.72;93132.78;5045983;28;20321;-76
2022/05/15 09:59:38;;;;;;;8.45;7.78;;;;;;;21.69;39.24;93112.84;5032670;28;20195;-76
2022/05/15 10:02:04;;;;;;;9.82;9.23;;;;;;;21.66;38.97;93126.78;5032362;28;20487;-75
2022/05/15 10:04:37;;;;;;;13.15;12.10;;;;;;;21.88;39.09;93126.38;5032312;28;20206;-77
2022/05/15 10:07:06;;;;;;;8.25;7.72;;;;;;;21.80;38.96;93113.97;5032406;28;20238;-76
2022/05/15 10:09:35;;;;;;;8.68;8.05;;;;;;;21.83;37.88;93124.72;5031484;28;20195;-74
2022/05/15 10:12:30;;;;;;;8.05;7.65;;;;;;;22.02;39.10;93129.44;5033747;28;20244;-78
2022/05/15 10:15:02;;;;;;;9.10;8.60;;;;;;;22.31;38.90;93126.47;5032351;28;20204;-77
2022/05/15 10:17:29;;;;;;;8.60;8.05;;;;;;;22.29;38.09;93126.03;5030618;28;20259;-76
2022/05/15 10:20:01;;;;;;;9.57;8.80;;;;;;;22.15;37.95;93114.97;5028576;28;20193;-79
2022/05/15 10:22:30;;;;;;;9.15;8.38;;;;;;;22.36;36.92;93125.44;5030602;28;20191;-78
2022/05/15 10:25:12;;;;;;;8.13;7.57;;;;;;;22.37;36.14;93127.03;5029766;28;20209;-79
2022/05/15 10:27:42;;;;;;;8.63;8.13;;;;;;;22.16;37.40;93105.91;5013799;28;20192;-78
2022/05/15 10:30:19;;;;;;;7.85;7.38;;;;;;;22.07;36.75;93124.66;5028752;28;20192;-79
2022/05/15 10:32:49;;;;;;;8.43;8.02;;;;;;;22.41;36.74;93127.88;5011965;28;20196;-78
2022/05/15 10:35:30;;;;;;;8.15;7.68;;;;;;;22.35;36.55;93114.03;5043821;28;20288;-84
2022/05/15 10:38:12;;;;;;;9.07;8.48;;;;;;;22.30;37.62;93126.81;5029796;28;20889;-80
2022/05/15 10:40:53;;;;;;;8.63;8.18;;;;;;;22.43;37.98;93121.09;5029308;28;20242;-81
2022/05/15 10:43:47;;;;;;;9.15;8.57;;;;;;;22.25;38.16;93122.50;5030193;28;20183;-83
2022/05/15 10:46:15;;;;;;;8.02;7.63;;;;;;;22.42;36.78;93130.19;5022028;28;20229;-77
2022/05/15 10:49:25;;;;;;;9.38;8.77;;;;;;;22.33;37.01;93105.63;5029845;28;20190;-82
2022/05/15 10:52:02;;;;;;;9.65;8.82;;;;;;;22.63;37.62;93114.81;4988143;28;20286;-81
2022/05/15 10:57:35;;;;;;;9.40;8.23;;;;;;;22.60;36.79;93120.84;5027965;28;20215;-77
2022/05/15 11:00:14;;;;;;;8.57;7.97;;;;;;;22.32;36.34;93112.03;5029398;28;20201;-78
2022/05/15 11:03:21;;;;;;;7.70;7.20;;;;;;;22.44;35.76;93125.31;5028743;28;20194;-80
2022/05/15 11:05:59;;;;;;;7.95;7.55;;;;;;;22.36;35.50;93123.56;5014318;28;20240;-77
2022/05/15 11:08:33;;;;;;;7.75;7.25;;;;;;;22.56;37.06;93124.50;5012113;28;20212;-80
2022/05/15 11:11:22;;;;;;;8.52;8.02;;;;;;;22.57;36.24;93118.84;5041006;28;20306;-81
2022/05/15 11:14:05;;;;;;;7.55;7.15;;;;;;;22.78;36.56;93119.44;5028641;28;20212;-81
2022/05/15 11:16:52;;;;;;;9.00;8.43;;;;;;;22.41;36.63;93126.00;5026861;28;20233;-79
2022/05/15 11:19:33;;;;;;;8.68;8.18;;;;;;;22.13;36.25;93117.22;5026457;28;20184;-81
2022/05/15 11:22:13;;;;;;;8.68;8.02;;;;;;;22.59;36.80;93116.63;5026319;28;20239;-82
2022/05/15 11:24:42;;;;;;;8.68;8.18;;;;;;;22.76;37.27;93118.19;5026202;28;20197;-79
2022/05/15 11:27:41;;;;;;;8.52;8.02;;;;;;;22.65;36.28;93119.81;5025254;28;20224;-76
2022/05/15 11:30:19;;;;;;;8.10;7.60;;;;;;;22.64;36.38;93105.75;5028297;28;20194;-77
2022/05/15 11:32:44;;;;;;;8.50;7.80;;;;;;;22.21;36.81;93101.13;5028077;28;20191;-76
2022/05/15 11:35:27;;;;;;;8.50;8.02;;;;;;;22.55;36.30;93107.00;5028126;28;20184;-80
2022/05/15 11:38:04;;;;;;;7.88;7.47;;;;;;;22.94;35.12;93104.22;5026916;28;20196;-79
2022/05/15 11:40:36;;;;;;;7.97;7.55;;;;;;;22.92;34.95;93108.38;5027496;28;20292;-76
2022/05/15 11:43:27;;;;;;;9.05;8.55;;;;;;;23.04;35.44;93098.41;5028909;28;20274;-76
2022/05/15 11:45:57;;;;;;;8.13;7.60;;;;;;;22.99;37.16;93105.88;5028355;28;20228;-78
2022/05/15 11:48:53;;;;;;;8.13;7.72;;;;;;;22.61;35.19;93097.66;5039818;28;20699;-78
2022/05/15 11:51:28;;;;;;;7.43;6.93;;;;;;;22.82;35.53;93091.00;5027601;28;20222;-78
2022/05/15 11:54:04;;;;;;;8.43;8.00;;;;;;;22.88;36.77;93099.53;5029473;28;20277;-78
2022/05/15 11:56:46;;;;;;;7.35;7.05;;;;;;;23.22;35.55;93094.28;5027635;28;20234;-80
2022/05/15 11:59:27;;;;;;;8.52;7.80;;;;;;;23.16;36.31;93089.56;5009340;28;20256;-77
2022/05/15 12:01:57;;;;;;;8.57;7.97;;;;;;;23.16;37.05;93085.00;5025713;28;20252;-78